Prairie Du Sac, Wisconsin
Current Conditions -  °F | °C
As of 12:15 AM on Friday 31 Oct 2014 (Local Time) from KC29 Reporting Station
Overcast Overcast  
Wind Chill: 38°   Ceiling: 4600
Heat Index: 44°   Visibility: 10mi
Dew Point: 30°   Wind: 13mph
Humidity: 57%   Direction: 330°NNW
Pressure: 30.08"   Gusts: NA
Location:  43.29°N, 89.72°W
Report Text: KC29 310515Z AUTO 33011KT 10SM OVC046 07/M01 A3008 RMK AO1 T00691010
Loading
Personal Weather Stations






























Interactive Weather Map
Tropical Storm Tracking
New forecast layout! Learn more

10-Day Weather Forecast

Advertisements
Track Severe Weather on mobile